Eastville, Pennsylvania
Current Conditions -  °F | °C
As of 1:54 PM on Thursday 30 Oct 2014 (Local Time) from KIPT Reporting Station
Overcast Overcast  
Wind Chill: 52°   Ceiling: 4700
Heat Index: 52°   Visibility: 10mi
Dew Point: 33°   Wind: 7mph
Humidity: 49%   Direction: 360°N
Pressure: 30.02"   Gusts: NA
Location:  41.029°N, 77.3175°W
Report Text: KIPT 301754Z 36006KT 10SM OVC047 11/01 A3002 RMK AO2 SLP168 T01110006 10117 20078 58009
Loading
Personal Weather Stations






























Interactive Weather Map
Tropical Storm Tracking
New forecast layout! Learn more

10-Day Weather Forecast

Advertisements
Track Severe Weather on mobile